createdAt,value
2022-11-01T00:00:00.723Z,30.50
2022-11-01T00:00:23.488Z,36.90
2022-11-01T00:00:46.192Z,34.93
2022-11-01T00:01:09.050Z,43.53
2022-11-01T00:01:32.016Z,38.58
2022-11-01T00:01:54.810Z,45.28
2022-11-01T00:02:17.836Z,34.10
2022-11-01T00:02:41.982Z,44.88
2022-11-01T00:03:05.084Z,46.53
2022-11-01T00:03:27.836Z,52.85
2022-11-01T00:03:50.563Z,50.70
2022-11-01T00:04:13.279Z,33.35
2022-11-01T00:04:36.000Z,33.00
2022-11-01T00:04:58.776Z,30.35
2022-11-01T00:05:21.479Z,34.35
2022-11-01T00:05:45.914Z,30.83
2022-11-01T00:06:08.652Z,37.47
2022-11-01T00:06:31.355Z,38.88
2022-11-01T00:06:55.126Z,41.35
2022-11-01T00:07:17.843Z,44.35
2022-11-01T00:07:40.576Z,53.20
2022-11-01T00:08:03.691Z,45.70
2022-11-01T00:08:26.753Z,55.80
2022-11-01T00:08:49.463Z,46.55
2022-11-01T00:09:12.197Z,45.08
2022-11-01T00:09:35.108Z,36.95
2022-11-01T00:09:57.892Z,32.70
2022-11-01T00:10:20.603Z,53.88
2022-11-01T00:10:43.317Z,65.43
2022-11-01T00:11:15.932Z,56.28
2022-11-01T00:11:38.904Z,49.15
2022-11-01T00:12:01.607Z,81.20
2022-11-01T00:12:24.390Z,91.93
2022-11-01T00:12:47.210Z,43.22
2022-11-01T00:13:09.924Z,58.50
2022-11-01T00:13:32.629Z,59.15
2022-11-01T00:13:56.354Z,80.28
2022-11-01T00:14:19.904Z,126.35
2022-11-01T00:14:42.706Z,97.80
2022-11-01T00:15:06.634Z,43.78
2022-11-01T00:15:29.410Z,34.28
2022-11-01T00:15:52.154Z,54.72
2022-11-01T00:16:15.093Z,47.83
2022-11-01T00:16:37.992Z,85.93
2022-11-01T00:17:00.695Z,47.70
2022-11-01T00:17:23.435Z,30.80
2022-11-01T00:17:47.646Z,39.20
2022-11-01T00:18:10.378Z,37.28
2022-11-01T00:18:33.164Z,44.42
2022-11-01T00:18:55.831Z,69.28
2022-11-01T00:19:19.291Z,37.78
2022-11-01T00:19:42.004Z,47.33
2022-11-01T00:20:05.433Z,60.78
2022-11-01T00:20:30.877Z,62.25
2022-11-01T00:20:53.621Z,61.65
2022-11-01T00:21:16.704Z,60.95
2022-11-01T00:21:39.693Z,63.47
2022-11-01T00:22:02.755Z,53.28
2022-11-01T00:22:26.725Z,50.97
2022-11-01T00:22:49.769Z,54.85
2022-11-01T00:23:13.668Z,51.00
2022-11-01T00:23:37.416Z,53.63
2022-11-01T00:24:00.162Z,60.63
2022-11-01T00:24:22.840Z,40.30
2022-11-01T00:24:45.547Z,44.55
2022-11-01T00:25:09.800Z,48.45
2022-11-01T00:25:32.573Z,32.15
2022-11-01T00:25:55.352Z,34.88
2022-11-01T00:26:19.587Z,43.78
2022-11-01T00:26:42.487Z,39.25
2022-11-01T00:27:05.506Z,37.25
2022-11-01T00:27:28.278Z,30.80
2022-11-01T00:27:51.000Z,50.90
2022-11-01T00:28:13.753Z,42.95
2022-11-01T00:28:37.678Z,39.22
2022-11-01T00:29:00.318Z,59.72
2022-11-01T00:29:23.043Z,64.60
2022-11-01T00:29:45.785Z,57.55
2022-11-01T00:30:09.088Z,45.10
2022-11-01T00:30:31.857Z,42.90
2022-11-01T00:30:54.568Z,41.45
2022-11-01T00:31:18.494Z,44.83
2022-11-01T00:31:41.470Z,58.70
2022-11-01T00:32:04.597Z,69.25
2022-11-01T00:32:28.325Z,53.05
2022-11-01T00:32:52.394Z,58.25
2022-11-01T00:33:15.284Z,71.60
2022-11-01T00:33:39.381Z,42.08
2022-11-01T00:34:05.654Z,57.15
2022-11-01T00:34:28.320Z,33.00
2022-11-01T00:34:51.114Z,38.80
2022-11-01T00:35:13.902Z,54.70
2022-11-01T00:35:39.024Z,52.58
2022-11-01T00:36:01.856Z,51.45
2022-11-01T00:36:24.737Z,59.17
2022-11-01T00:36:47.532Z,42.20
2022-11-01T00:37:10.461Z,48.05
2022-11-01T00:37:33.280Z,73.90
2022-11-01T00:37:56.001Z,68.45
2022-11-01T00:38:18.880Z,64.05
2022-11-01T00:38:41.653Z,41.63
2022-11-01T00:39:04.575Z,45.58
2022-11-01T00:39:30.610Z,56.45
2022-11-01T00:39:54.264Z,55.15
2022-11-01T00:40:17.190Z,58.22
2022-11-01T00:40:39.879Z,88.28
2022-11-01T00:41:04.188Z,58.03
2022-11-01T00:41:26.939Z,49.33
2022-11-01T00:41:49.616Z,53.15
2022-11-01T00:42:12.564Z,48.00
2022-11-01T00:42:35.380Z,45.67
2022-11-01T00:42:58.083Z,37.80
2022-11-01T00:43:20.815Z,44.85
2022-11-01T00:43:43.524Z,53.65
2022-11-01T00:44:06.280Z,61.42
2022-11-01T00:44:28.943Z,64.78
2022-11-01T00:44:51.683Z,49.83
2022-11-01T00:45:14.474Z,59.50
2022-11-01T00:45:38.357Z,50.60
2022-11-01T00:46:01.178Z,43.88
2022-11-01T00:46:23.903Z,28.48
2022-11-01T00:46:46.632Z,30.40
2022-11-01T00:47:10.586Z,48.13
2022-11-01T00:47:33.296Z,49.17
2022-11-01T00:47:57.536Z,48.45
2022-11-01T00:48:20.320Z,52.03
2022-11-01T00:48:43.000Z,82.82
2022-11-01T00:49:05.789Z,82.97
2022-11-01T00:49:28.522Z,94.40
2022-11-01T00:49:51.237Z,79.68
2022-11-01T00:50:14.046Z,73.35
2022-11-01T00:50:37.764Z,60.88
2022-11-01T00:51:00.414Z,69.70
2022-11-01T00:51:23.092Z,68.70
2022-11-01T00:51:45.784Z,64.30
2022-11-01T00:52:08.675Z,45.67
2022-11-01T00:52:31.342Z,43.50
2022-11-01T00:52:54.104Z,50.60
2022-11-01T00:53:18.247Z,74.45
2022-11-01T00:53:42.210Z,51.97
2022-11-01T00:54:05.130Z,46.72
2022-11-01T00:54:27.850Z,34.17
2022-11-01T00:54:50.655Z,41.13
2022-11-01T00:55:13.369Z,36.47
2022-11-01T00:55:36.159Z,45.20
2022-11-01T00:56:01.138Z,108.95
2022-11-01T00:56:23.836Z,88.30
2022-11-01T00:56:46.574Z,85.30
2022-11-01T00:57:09.393Z,54.22
2022-11-01T00:57:32.076Z,50.88
2022-11-01T00:57:54.958Z,55.40
2022-11-01T00:58:17.845Z,40.10
2022-11-01T00:58:40.821Z,55.40
2022-11-01T00:59:03.565Z,70.93
2022-11-01T00:59:26.280Z,73.75
2022-11-01T00:59:49.004Z,60.05
2022-11-01T01:00:13.454Z,67.90
2022-11-01T01:00:36.350Z,70.40
2022-11-01T01:00:59.491Z,72.22
2022-11-01T01:01:22.687Z,57.85
2022-11-01T01:01:45.585Z,81.90
2022-11-01T01:02:08.834Z,145.77
2022-11-01T01:02:31.966Z,135.85
2022-11-01T01:02:56.248Z,112.78
2022-11-01T01:03:18.878Z,92.03
2022-11-01T01:03:41.771Z,71.63
2022-11-01T01:04:04.770Z,67.78
2022-11-01T01:04:27.645Z,78.15
2022-11-01T01:04:50.658Z,71.47
2022-11-01T01:05:13.394Z,58.00
2022-11-01T01:05:36.150Z,57.33
2022-11-01T01:05:58.927Z,72.22
2022-11-01T01:06:21.653Z,83.30
2022-11-01T01:06:44.319Z,66.00
2022-11-01T01:07:06.990Z,91.18
2022-11-01T01:07:29.734Z,110.60
2022-11-01T01:07:52.434Z,203.68
2022-11-01T01:08:15.521Z,109.03
2022-11-01T01:08:38.290Z,36.17
2022-11-01T01:09:01.050Z,37.42
2022-11-01T01:09:23.955Z,49.70
2022-11-01T01:09:46.665Z,57.92
2022-11-01T01:10:09.649Z,65.68
2022-11-01T01:10:32.444Z,51.78
2022-11-01T01:10:55.255Z,85.13
2022-11-01T01:11:17.994Z,157.65
2022-11-01T01:11:40.697Z,121.63
2022-11-01T01:12:03.478Z,112.68
2022-11-01T01:12:26.151Z,41.90
2022-11-01T01:12:50.026Z,38.20
2022-11-01T01:13:12.736Z,61.88
2022-11-01T01:13:35.534Z,88.55
2022-11-01T01:13:58.275Z,65.90
2022-11-01T01:14:20.989Z,72.78
2022-11-01T01:14:44.726Z,55.33
2022-11-01T01:15:09.280Z,44.25
2022-11-01T01:15:31.994Z,37.72
2022-11-01T01:15:54.728Z,35.58
2022-11-01T01:16:17.504Z,48.80
2022-11-01T01:17:08.130Z,45.17
2022-11-01T01:17:33.720Z,56.95
2022-11-01T01:17:58.221Z,50.30
2022-11-01T01:18:20.904Z,39.25
2022-11-01T01:18:43.635Z,58.85
2022-11-01T01:19:06.355Z,40.55
2022-11-01T01:19:29.841Z,38.25
2022-11-01T01:19:52.490Z,33.95
2022-11-01T01:20:15.435Z,36.47
2022-11-01T01:20:38.197Z,34.20
2022-11-01T01:21:01.776Z,52.35
2022-11-01T01:21:24.497Z,42.38
2022-11-01T01:21:47.316Z,52.65
2022-11-01T01:22:10.082Z,35.95
2022-11-01T01:22:32.696Z,46.72
2022-11-01T01:22:55.889Z,48.65
2022-11-01T01:23:18.630Z,61.20
2022-11-01T01:23:41.290Z,45.17
2022-11-01T01:24:04.069Z,33.55
2022-11-01T01:24:26.815Z,31.83
2022-11-01T01:24:49.992Z,30.08
2022-11-01T01:25:12.650Z,54.03
2022-11-01T01:25:35.375Z,47.08
2022-11-01T01:25:58.191Z,67.03
2022-11-01T01:26:20.915Z,44.20
2022-11-01T01:26:43.720Z,36.63
2022-11-01T01:27:06.469Z,35.03
2022-11-01T01:27:29.129Z,30.23
2022-11-01T01:27:51.813Z,35.42
2022-11-01T01:28:14.595Z,50.67
2022-11-01T01:28:41.789Z,37.42
2022-11-01T01:29:07.357Z,35.65
2022-11-01T01:29:30.275Z,37.30
2022-11-01T01:29:52.954Z,51.05
2022-11-01T01:30:15.657Z,48.03
2022-11-01T01:30:41.481Z,31.48
2022-11-01T01:31:07.432Z,34.30
2022-11-01T01:31:30.134Z,31.65
2022-11-01T01:31:52.858Z,39.05
2022-11-01T01:32:16.728Z,68.57
2022-11-01T01:32:39.459Z,67.10
2022-11-01T01:33:03.780Z,57.45
2022-11-01T01:33:26.904Z,57.13
2022-11-01T01:33:49.602Z,71.15
2022-11-01T01:34:12.322Z,48.08
2022-11-01T01:34:35.074Z,32.35
2022-11-01T01:34:58.099Z,30.63
2022-11-01T01:35:20.800Z,29.48
2022-11-01T01:35:43.501Z,37.08
2022-11-01T01:36:07.147Z,34.35
2022-11-01T01:36:29.863Z,30.95
2022-11-01T01:36:52.519Z,38.88
2022-11-01T01:37:15.610Z,39.10
2022-11-01T01:37:39.400Z,41.58
2022-11-01T01:38:02.264Z,35.92
2022-11-01T01:38:25.333Z,32.72
2022-11-01T01:38:48.018Z,44.80
2022-11-01T01:39:10.862Z,73.90
2022-11-01T01:39:33.626Z,40.08
2022-11-01T01:39:56.504Z,35.05
2022-11-01T01:40:19.352Z,38.08
2022-11-01T01:40:42.252Z,39.60
2022-11-01T01:41:23.936Z,45.00
2022-11-01T01:41:58.914Z,38.75
2022-11-01T01:42:29.128Z,32.10
2022-11-01T01:42:51.839Z,26.65
2022-11-01T01:43:14.740Z,32.80
2022-11-01T01:43:41.316Z,52.10
2022-11-01T01:44:57.250Z,31.75
2022-11-01T01:45:31.310Z,30.23
2022-11-01T01:45:54.020Z,45.22
2022-11-01T01:46:16.855Z,35.47
2022-11-01T01:46:39.584Z,37.60
2022-11-01T01:47:02.424Z,68.03
2022-11-01T01:47:27.375Z,67.38
2022-11-01T01:47:52.169Z,60.72
2022-11-01T01:48:22.039Z,55.30
2022-11-01T01:48:47.055Z,94.30
2022-11-01T01:49:09.934Z,163.10
2022-11-01T01:49:32.666Z,57.40
2022-11-01T01:49:57.509Z,57.40
2022-11-01T01:50:25.934Z,47.10
2022-11-01T01:50:51.302Z,81.20
2022-11-01T01:51:16.469Z,40.30
2022-11-01T01:51:39.520Z,32.22
2022-11-01T01:52:02.199Z,34.67
2022-11-01T01:52:24.834Z,27.48
2022-11-01T01:52:51.846Z,41.72
2022-11-01T01:53:17.485Z,38.10
2022-11-01T01:53:42.142Z,37.65
2022-11-01T01:54:04.952Z,34.83
2022-11-01T01:54:27.597Z,31.92
2022-11-01T01:54:51.135Z,30.83
2022-11-01T01:55:15.813Z,29.67
2022-11-01T01:55:43.239Z,33.65
2022-11-01T01:56:07.651Z,41.95
2022-11-01T01:56:32.117Z,36.63
2022-11-01T01:56:54.902Z,44.25
2022-11-01T01:57:17.749Z,59.28
2022-11-01T01:57:40.474Z,32.47
2022-11-01T01:58:03.317Z,30.17
2022-11-01T01:58:28.474Z,33.17
2022-11-01T01:58:52.517Z,34.25
2022-11-01T01:59:15.228Z,51.70
2022-11-01T01:59:37.893Z,32.92
2022-11-01T02:00:00.577Z,30.00
2022-11-01T02:00:23.232Z,38.65
2022-11-01T02:00:46.201Z,38.92
2022-11-01T02:01:09.058Z,46.70
2022-11-01T02:01:32.486Z,53.10
2022-11-01T02:01:55.549Z,40.35
2022-11-01T02:02:18.494Z,35.63
2022-11-01T02:02:41.607Z,55.15
2022-11-01T02:03:05.089Z,45.42
2022-11-01T02:03:31.517Z,37.67
2022-11-01T02:03:54.300Z,39.72
2022-11-01T02:04:20.131Z,25.00
2022-11-01T02:04:45.146Z,21.67
2022-11-01T02:05:11.061Z,30.38
2022-11-01T02:05:39.834Z,37.55
2022-11-01T02:06:07.152Z,43.92
2022-11-01T02:06:30.019Z,39.95
2022-11-01T02:06:52.800Z,45.75
2022-11-01T02:07:15.593Z,49.75
2022-11-01T02:07:38.322Z,40.50
2022-11-01T02:08:02.113Z,32.58
2022-11-01T02:08:28.152Z,28.40
2022-11-01T02:08:52.801Z,28.90
2022-11-01T02:09:15.482Z,30.60
2022-11-01T02:09:40.750Z,25.85
2022-11-01T02:10:05.086Z,24.90
2022-11-01T02:10:28.811Z,29.83
2022-11-01T02:10:51.506Z,26.75
2022-11-01T02:11:14.551Z,27.52
2022-11-01T02:11:37.416Z,31.50
2022-11-01T02:12:00.153Z,31.05
2022-11-01T02:12:22.968Z,49.38
2022-11-01T02:12:47.997Z,32.92
2022-11-01T02:13:14.211Z,25.65
2022-11-01T02:13:36.916Z,27.75
2022-11-01T02:13:59.686Z,36.85
2022-11-01T02:14:22.372Z,29.77
2022-11-01T02:14:45.087Z,27.90
2022-11-01T02:15:13.676Z,28.13
2022-11-01T02:15:39.827Z,33.80
2022-11-01T02:16:31.231Z,30.88
2022-11-01T02:16:57.052Z,29.73
2022-11-01T02:17:22.682Z,35.40
2022-11-01T02:18:01.265Z,25.83
2022-11-01T02:18:28.304Z,32.75
2022-11-01T02:18:57.592Z,27.35
2022-11-01T02:19:46.892Z,27.83
2022-11-01T02:20:38.092Z,32.08
2022-11-01T02:21:23.192Z,22.27
2022-11-01T02:21:50.776Z,24.10
2022-11-01T02:22:15.101Z,27.65
2022-11-01T02:23:15.611Z,26.60
2022-11-01T02:23:57.465Z,20.50
2022-11-01T02:24:46.233Z,27.17
2022-11-01T02:25:35.052Z,61.28
2022-11-01T02:26:03.831Z,62.20
2022-11-01T02:27:06.544Z,33.95
2022-11-01T02:27:31.257Z,52.13
2022-11-01T02:28:08.353Z,31.00
2022-11-01T02:28:41.686Z,26.98
2022-11-01T02:29:12.076Z,36.63
2022-11-01T02:30:04.210Z,39.83
2022-11-01T02:30:27.030Z,23.95
2022-11-01T02:30:55.994Z,32.70
2022-11-01T02:31:31.678Z,43.63
2022-11-01T02:32:01.524Z,41.40
2022-11-01T02:32:26.253Z,34.95
2022-11-01T02:32:55.212Z,25.88
2022-11-01T02:33:22.181Z,27.05
2022-11-01T02:33:45.711Z,26.42
2022-11-01T02:34:10.835Z,32.90
2022-11-01T02:34:35.367Z,28.40
2022-11-01T02:34:59.043Z,24.08
2022-11-01T02:35:24.867Z,27.90
2022-11-01T02:35:56.022Z,36.15
2022-11-01T02:36:21.571Z,27.48
2022-11-01T02:36:46.091Z,36.75
2022-11-01T02:37:11.669Z,23.42
2022-11-01T02:37:37.596Z,24.17
2022-11-01T02:38:01.578Z,26.15
2022-11-01T02:38:27.081Z,25.88
2022-11-01T02:38:51.517Z,25.92
2022-11-01T02:39:17.609Z,24.80
2022-11-01T02:39:41.433Z,20.98
2022-11-01T02:40:07.668Z,22.85
2022-11-01T02:40:35.616Z,17.60
2022-11-01T02:41:04.007Z,22.00
2022-11-01T02:41:29.432Z,25.80
2022-11-01T02:41:54.969Z,43.60
2022-11-01T02:42:19.847Z,25.20
2022-11-01T02:42:43.601Z,21.30
2022-11-01T02:43:09.192Z,27.33
2022-11-01T02:43:34.572Z,24.35
2022-11-01T02:43:59.738Z,18.90
2022-11-01T02:44:23.884Z,23.42
2022-11-01T02:44:50.335Z,27.27
2022-11-01T02:45:27.756Z,26.58
2022-11-01T02:45:51.514Z,18.33
2022-11-01T02:46:32.710Z,20.23
2022-11-01T02:47:01.860Z,25.70
2022-11-01T02:47:26.147Z,29.63
2022-11-01T02:47:48.964Z,45.05
2022-11-01T02:48:13.394Z,47.40
2022-11-01T02:48:36.160Z,35.35
2022-11-01T02:48:59.335Z,27.38
2022-11-01T02:49:22.129Z,27.48
2022-11-01T02:49:45.610Z,31.05
2022-11-01T02:50:09.747Z,36.00
2022-11-01T02:50:33.999Z,22.40
2022-11-01T02:50:57.283Z,19.70
2022-11-01T02:51:21.966Z,20.20
2022-11-01T02:51:44.659Z,23.88
2022-11-01T02:52:08.978Z,20.55
2022-11-01T02:52:33.579Z,22.08
2022-11-01T02:52:56.305Z,25.25
2022-11-01T02:53:19.120Z,29.38
2022-11-01T02:53:41.851Z,16.73
2022-11-01T02:54:06.779Z,18.88
2022-11-01T02:54:32.396Z,18.67
2022-11-01T02:54:57.710Z,24.30
2022-11-01T02:55:31.075Z,35.67
2022-11-01T02:55:54.130Z,30.85
2022-11-01T02:56:16.824Z,27.58
2022-11-01T02:56:39.546Z,25.02
2022-11-01T02:57:05.600Z,24.88
2022-11-01T02:57:31.519Z,36.72
2022-11-01T02:57:54.244Z,32.95
2022-11-01T02:58:20.140Z,35.08
2022-11-01T02:58:42.811Z,39.90
2022-11-01T02:59:05.799Z,35.97
2022-11-01T02:59:28.797Z,26.00
2022-11-01T02:59:51.527Z,33.40
2022-11-01T03:00:19.684Z,23.42
2022-11-01T03:00:43.808Z,21.85
2022-11-01T03:01:15.517Z,29.77
2022-11-01T03:01:38.569Z,31.73
2022-11-01T03:02:04.759Z,26.85
2022-11-01T03:02:39.832Z,24.90
2022-11-01T03:03:10.469Z,24.02
2022-11-01T03:03:33.857Z,20.80
2022-11-01T03:03:56.944Z,16.77
2022-11-01T03:04:19.789Z,18.67
2022-11-01T03:04:42.734Z,21.15
2022-11-01T03:05:07.037Z,20.60
2022-11-01T03:05:35.153Z,19.58
2022-11-01T03:06:04.864Z,24.13
2022-11-01T03:06:30.401Z,20.58
2022-11-01T03:06:55.364Z,19.75
2022-11-01T03:07:18.213Z,21.42
2022-11-01T03:07:41.764Z,19.48
2022-11-01T03:08:06.727Z,21.23
2022-11-01T03:08:32.363Z,16.60
2022-11-01T03:08:57.779Z,22.75
2022-11-01T03:09:20.478Z,19.45
2022-11-01T03:09:43.257Z,20.30
2022-11-01T03:10:07.059Z,18.00
2022-11-01T03:10:35.603Z,24.48
2022-11-01T03:11:05.458Z,19.35
2022-11-01T03:11:32.529Z,26.35
2022-11-01T03:11:57.966Z,26.70
2022-11-01T03:12:21.933Z,28.23
2022-11-01T03:12:51.270Z,18.67
2022-11-01T03:13:21.444Z,16.38
2022-11-01T03:13:54.103Z,20.05
2022-11-01T03:14:23.759Z,20.77
2022-11-01T03:14:50.239Z,21.55
2022-11-01T03:15:21.268Z,21.08
2022-11-01T03:15:49.299Z,19.63
2022-11-01T03:16:16.958Z,21.00
2022-11-01T03:16:43.534Z,17.92
2022-11-01T03:17:08.498Z,22.55
2022-11-01T03:17:34.118Z,23.95
2022-11-01T03:18:01.296Z,20.45
2022-11-01T03:18:27.860Z,28.48
2022-11-01T03:19:04.843Z,20.30
2022-11-01T03:19:35.487Z,24.25
2022-11-01T03:20:06.827Z,25.60
2022-11-01T03:20:47.719Z,32.58
2022-11-01T03:21:18.275Z,21.63
2022-11-01T03:21:42.496Z,18.88
2022-11-01T03:22:09.308Z,18.08
2022-11-01T03:22:35.198Z,21.50
2022-11-01T03:22:59.098Z,27.50
2022-11-01T03:23:24.155Z,27.75
2022-11-01T03:23:49.772Z,35.28
2022-11-01T03:24:19.270Z,33.42
2022-11-01T03:24:46.575Z,38.88
2022-11-01T03:25:32.004Z,43.50
2022-11-01T03:25:55.902Z,48.08
2022-11-01T03:26:22.150Z,45.85
2022-11-01T03:26:45.640Z,52.92
2022-11-01T03:27:10.926Z,61.97
2022-11-01T03:27:35.525Z,68.07
2022-11-01T03:27:59.059Z,62.40
2022-11-01T03:28:23.083Z,44.03
2022-11-01T03:28:47.088Z,67.90
2022-11-01T03:29:10.089Z,76.15
2022-11-01T03:29:32.809Z,64.38
2022-11-01T03:30:03.694Z,52.15
2022-11-01T03:30:26.437Z,50.97
2022-11-01T03:30:51.146Z,46.25
2022-11-01T03:31:18.758Z,36.03
2022-11-01T03:31:41.558Z,37.83
2022-11-01T03:32:04.395Z,46.50
2022-11-01T03:32:30.729Z,76.25
2022-11-01T03:32:56.345Z,55.53
2022-11-01T03:33:19.059Z,47.33
2022-11-01T03:33:45.007Z,47.72
2022-11-01T03:34:16.419Z,40.15
2022-11-01T03:34:39.176Z,55.75
2022-11-01T03:35:01.909Z,58.92
2022-11-01T03:35:25.872Z,38.70
2022-11-01T03:35:49.811Z,50.15
2022-11-01T03:36:14.901Z,59.17
2022-11-01T03:36:39.204Z,55.17
2022-11-01T03:37:04.655Z,50.63
2022-11-01T03:37:28.490Z,61.38
2022-11-01T03:37:54.249Z,39.88
2022-11-01T03:38:17.769Z,38.53
2022-11-01T03:38:44.241Z,36.30
2022-11-01T03:39:09.015Z,54.22
2022-11-01T03:39:33.453Z,58.15
2022-11-01T03:39:56.144Z,39.00
2022-11-01T03:40:18.823Z,47.33
2022-11-01T03:40:44.793Z,90.00
2022-11-01T03:41:12.961Z,45.72
2022-11-01T03:41:38.334Z,37.50
2022-11-01T03:42:03.545Z,40.90
2022-11-01T03:42:26.235Z,41.08
2022-11-01T03:42:50.311Z,42.95
2022-11-01T03:43:13.994Z,39.47
2022-11-01T03:43:36.815Z,39.88
2022-11-01T03:43:59.673Z,36.22
2022-11-01T03:44:22.349Z,34.95
2022-11-01T03:44:47.094Z,34.80
2022-11-01T03:45:11.624Z,42.53
2022-11-01T03:45:35.573Z,38.97
2022-11-01T03:45:58.370Z,27.42
2022-11-01T03:46:21.055Z,27.40
2022-11-01T03:46:43.834Z,29.00
2022-11-01T03:47:06.684Z,29.02
2022-11-01T03:47:29.934Z,29.80
2022-11-01T03:47:54.041Z,34.22
2022-11-01T03:48:16.764Z,29.40
2022-11-01T03:48:40.278Z,33.20
2022-11-01T03:49:02.936Z,25.20
2022-11-01T03:49:25.613Z,31.45
2022-11-01T03:49:48.328Z,34.33
2022-11-01T03:50:15.034Z,30.90
2022-11-01T03:50:40.177Z,31.67
2022-11-01T03:51:02.892Z,41.65
2022-11-01T03:51:25.614Z,35.50
2022-11-01T03:51:48.716Z,33.40
2022-11-01T03:52:11.399Z,32.28
2022-11-01T03:52:34.255Z,41.72
2022-11-01T03:52:57.045Z,42.70
2022-11-01T03:53:19.865Z,45.25
2022-11-01T03:53:43.588Z,47.20
2022-11-01T03:54:11.004Z,44.20
2022-11-01T03:54:34.079Z,57.67
2022-11-01T03:54:56.878Z,52.63
2022-11-01T03:55:19.958Z,40.08
2022-11-01T03:55:43.839Z,35.20
2022-11-01T03:56:07.053Z,34.70
2022-11-01T03:56:29.733Z,33.53
2022-11-01T03:56:52.554Z,34.42
2022-11-01T03:57:16.030Z,31.92
2022-11-01T03:57:38.729Z,39.08
2022-11-01T03:58:01.828Z,40.53
2022-11-01T03:58:41.481Z,52.83
2022-11-01T03:59:04.333Z,47.88
2022-11-01T03:59:27.043Z,47.72
2022-11-01T03:59:49.743Z,45.40
2022-11-01T04:00:15.547Z,42.67
2022-11-01T04:00:39.129Z,43.95
2022-11-01T04:01:01.889Z,51.90
2022-11-01T04:01:24.748Z,45.97
2022-11-01T04:01:47.936Z,58.60
2022-11-01T04:02:38.676Z,35.00
2022-11-01T04:03:03.181Z,36.88
2022-11-01T04:03:26.274Z,41.20
2022-11-01T04:03:51.587Z,107.82
2022-11-01T04:04:14.298Z,33.40
2022-11-01T04:04:39.853Z,32.15
2022-11-01T04:05:02.569Z,33.65
2022-11-01T04:05:26.741Z,38.67
2022-11-01T04:05:49.512Z,30.23
2022-11-01T04:06:12.182Z,34.15
2022-11-01T04:06:35.086Z,30.80
2022-11-01T04:06:57.862Z,27.95
2022-11-01T04:07:20.642Z,29.00
2022-11-01T04:07:43.580Z,30.92
2022-11-01T04:08:06.884Z,29.88
2022-11-01T04:08:29.649Z,31.77
2022-11-01T04:08:52.414Z,34.47
2022-11-01T04:09:15.090Z,34.40
2022-11-01T04:09:37.772Z,27.75
2022-11-01T04:10:00.470Z,26.33
2022-11-01T04:10:24.005Z,33.58
2022-11-01T04:10:46.665Z,27.25
2022-11-01T04:11:09.336Z,22.02
2022-11-01T04:11:32.197Z,28.92
2022-11-01T04:11:54.883Z,23.98
2022-11-01T04:12:17.625Z,25.40
2022-11-01T04:12:44.793Z,25.15
2022-11-01T04:13:07.503Z,25.88
2022-11-01T04:13:30.183Z,16.63
2022-11-01T04:13:52.853Z,18.40
2022-11-01T04:14:34.087Z,26.73
2022-11-01T04:15:15.576Z,31.00
2022-11-01T04:15:56.891Z,23.33
2022-11-01T04:16:38.531Z,19.10
2022-11-01T04:17:20.151Z,20.73
2022-11-01T04:18:01.121Z,25.67
2022-11-01T04:18:44.271Z,27.85
2022-11-01T04:19:26.271Z,24.58
2022-11-01T04:20:07.775Z,24.08
2022-11-01T04:20:33.541Z,21.58
2022-11-01T04:20:56.261Z,37.08
2022-11-01T04:21:20.803Z,31.92
2022-11-01T04:21:43.509Z,31.85
2022-11-01T04:22:06.241Z,20.42
2022-11-01T04:22:29.014Z,22.52
2022-11-01T04:22:51.731Z,18.77
2022-11-01T04:23:14.354Z,21.95
2022-11-01T04:23:37.195Z,25.70
2022-11-01T04:23:59.970Z,28.35
2022-11-01T04:24:22.619Z,22.10
2022-11-01T04:24:45.453Z,30.50
2022-11-01T04:25:08.557Z,29.83
2022-11-01T04:25:31.436Z,25.25
2022-11-01T04:25:54.115Z,20.73
2022-11-01T04:26:19.326Z,36.92
2022-11-01T04:26:41.997Z,25.25
2022-11-01T04:27:04.791Z,18.23
2022-11-01T04:27:27.532Z,21.67
2022-11-01T04:27:50.238Z,33.80
2022-11-01T04:28:12.951Z,26.88
2022-11-01T04:28:35.918Z,28.48
2022-11-01T04:28:58.888Z,24.98
2022-11-01T04:29:21.574Z,26.60
2022-11-01T04:29:47.200Z,28.15
2022-11-01T04:30:11.184Z,39.25
2022-11-01T04:30:33.898Z,30.58
2022-11-01T04:30:56.621Z,24.17
2022-11-01T04:31:19.313Z,21.52
2022-11-01T04:31:42.227Z,22.70
2022-11-01T04:32:05.209Z,22.95
2022-11-01T04:32:27.988Z,23.30
2022-11-01T04:32:50.739Z,18.65
2022-11-01T04:33:13.758Z,23.50
2022-11-01T04:33:38.462Z,30.40
2022-11-01T04:34:01.603Z,27.25
2022-11-01T04:34:42.784Z,22.75
2022-11-01T04:35:35.839Z,26.95
2022-11-01T04:35:58.543Z,25.17
2022-11-01T04:36:21.325Z,26.60
2022-11-01T04:36:44.298Z,34.88
2022-11-01T04:37:07.006Z,33.47
2022-11-01T04:37:31.676Z,38.63
2022-11-01T04:37:57.952Z,25.90
2022-11-01T04:38:20.682Z,28.85
2022-11-01T04:38:43.365Z,27.88
2022-11-01T04:39:06.084Z,30.23
2022-11-01T04:39:28.816Z,28.25
2022-11-01T04:39:51.558Z,23.77
2022-11-01T04:40:15.716Z,23.48
2022-11-01T04:40:38.341Z,23.00
2022-11-01T04:41:00.984Z,27.05
2022-11-01T04:41:23.836Z,34.45
2022-11-01T04:41:47.100Z,32.63
2022-11-01T04:42:11.145Z,25.35
2022-11-01T04:42:34.792Z,23.60
2022-11-01T04:42:58.202Z,25.23
2022-11-01T04:43:22.895Z,25.40
2022-11-01T04:43:45.821Z,30.85
2022-11-01T04:44:08.567Z,31.45
2022-11-01T04:44:31.258Z,33.15
2022-11-01T04:44:53.913Z,31.33
2022-11-01T04:45:16.705Z,33.40
2022-11-01T04:45:39.422Z,34.75
2022-11-01T04:46:02.135Z,29.08
2022-11-01T04:46:24.845Z,33.08
2022-11-01T04:46:47.766Z,30.40
2022-11-01T04:47:10.507Z,35.92
2022-11-01T04:47:33.280Z,34.00
2022-11-01T04:48:03.376Z,30.52
2022-11-01T04:48:27.701Z,36.85
2022-11-01T04:48:51.851Z,49.13
2022-11-01T04:49:14.566Z,36.90
2022-11-01T04:49:37.182Z,35.85
2022-11-01T04:49:59.947Z,54.50
2022-11-01T04:50:22.657Z,33.47
2022-11-01T04:50:46.117Z,26.10
2022-11-01T04:51:08.958Z,38.58
2022-11-01T04:51:31.706Z,41.55
2022-11-01T04:51:54.547Z,26.85
2022-11-01T04:52:17.411Z,48.88
2022-11-01T04:52:40.287Z,64.72
2022-11-01T04:53:03.258Z,29.25
2022-11-01T04:53:26.225Z,23.08
2022-11-01T04:53:49.190Z,32.15
2022-11-01T04:54:12.038Z,28.98
2022-11-01T04:54:34.708Z,30.40
2022-11-01T04:54:57.480Z,25.77
2022-11-01T04:55:20.214Z,24.58
2022-11-01T04:55:42.875Z,29.58
2022-11-01T04:56:07.259Z,26.67
2022-11-01T04:56:29.979Z,32.72
2022-11-01T04:56:52.650Z,29.95
2022-11-01T04:57:24.509Z,26.67
2022-11-01T04:57:47.366Z,43.78
2022-11-01T04:58:11.114Z,39.85
2022-11-01T04:58:34.628Z,41.28
2022-11-01T04:58:57.675Z,36.90
2022-11-01T04:59:20.402Z,38.17
2022-11-01T04:59:43.159Z,38.67
2022-11-01T05:00:08.321Z,36.63
2022-11-01T05:00:33.415Z,27.20
2022-11-01T05:00:56.776Z,27.23
2022-11-01T05:01:22.218Z,25.80
2022-11-01T05:01:45.562Z,27.58
2022-11-01T05:02:08.369Z,34.05
2022-11-01T05:02:31.193Z,35.20
2022-11-01T05:02:54.920Z,34.65
2022-11-01T05:03:17.673Z,53.63
2022-11-01T05:03:40.341Z,40.33
2022-11-01T05:04:05.042Z,32.15
2022-11-01T05:04:27.725Z,27.55
2022-11-01T05:04:50.468Z,24.70
2022-11-01T05:05:13.407Z,26.27
2022-11-01T05:05:36.821Z,43.97
2022-11-01T05:05:59.570Z,43.10
2022-11-01T05:06:22.242Z,40.53
2022-11-01T05:06:44.945Z,40.45
2022-11-01T05:07:07.810Z,55.03
2022-11-01T05:07:30.550Z,36.38
2022-11-01T05:08:27.725Z,25.38
2022-11-01T05:08:50.593Z,29.98
2022-11-01T05:09:13.270Z,28.33
2022-11-01T05:09:35.979Z,21.38
2022-11-01T05:09:58.638Z,26.58
2022-11-01T05:10:21.284Z,23.05
2022-11-01T05:10:44.480Z,26.70
2022-11-01T05:11:07.299Z,26.27
2022-11-01T05:11:30.125Z,19.88
2022-11-01T05:11:52.801Z,19.27
2022-11-01T05:12:15.550Z,20.80
2022-11-01T05:12:38.300Z,25.02
2022-11-01T05:13:01.386Z,33.08
2022-11-01T05:13:25.194Z,32.17
2022-11-01T05:13:47.913Z,37.35
2022-11-01T05:14:10.719Z,36.53
2022-11-01T05:14:33.419Z,34.55
2022-11-01T05:14:56.995Z,25.23
2022-11-01T05:15:20.107Z,19.88
2022-11-01T05:15:59.262Z,27.05
2022-11-01T05:16:25.511Z,28.58
2022-11-01T05:16:48.179Z,30.02
2022-11-01T05:17:13.749Z,22.15
2022-11-01T05:17:36.569Z,19.55
2022-11-01T05:17:59.509Z,23.65
2022-11-01T05:18:22.234Z,26.63
2022-11-01T05:18:45.083Z,34.10
2022-11-01T05:19:09.400Z,30.65
2022-11-01T05:19:32.169Z,25.67
2022-11-01T05:19:54.815Z,27.30
2022-11-01T05:20:17.593Z,26.13
2022-11-01T05:20:40.278Z,29.50